sensor_id;sensor_type;location;lat;lon;timestamp;P1;durP1;ratioP1;P2;durP2;ratioP2
6862;SDS011;3470;48.738;9.616;2023-11-19T00:01:55;13.40;;;11.57;;
6862;SDS011;3470;48.738;9.616;2023-11-19T00:04:21;16.40;;;11.90;;
6862;SDS011;3470;48.738;9.616;2023-11-19T00:06:47;11.83;;;10.50;;
6862;SDS011;3470;48.738;9.616;2023-11-19T00:09:13;14.97;;;11.40;;
6862;SDS011;3470;48.738;9.616;2023-11-19T00:11:41;14.60;;;10.67;;
6862;SDS011;3470;48.738;9.616;2023-11-19T00:14:07;13.40;;;10.80;;
6862;SDS011;3470;48.738;9.616;2023-11-19T00:16:33;12.13;;;9.90;;
6862;SDS011;3470;48.738;9.616;2023-11-19T00:18:59;11.50;;;9.37;;
6862;SDS011;3470;48.738;9.616;2023-11-19T00:21:25;11.63;;;9.37;;
6862;SDS011;3470;48.738;9.616;2023-11-19T00:23:53;12.57;;;9.77;;
6862;SDS011;3470;48.738;9.616;2023-11-19T00:26:19;12.47;;;10.00;;
6862;SDS011;3470;48.738;9.616;2023-11-19T00:28:45;12.37;;;9.20;;
6862;SDS011;3470;48.738;9.616;2023-11-19T00:31:12;10.80;;;9.20;;
6862;SDS011;3470;48.738;9.616;2023-11-19T00:33:38;12.13;;;10.00;;
6862;SDS011;3470;48.738;9.616;2023-11-19T00:36:04;13.83;;;10.83;;
6862;SDS011;3470;48.738;9.616;2023-11-19T00:38:30;13.47;;;11.00;;
6862;SDS011;3470;48.738;9.616;2023-11-19T00:40:56;16.87;;;12.83;;
6862;SDS011;3470;48.738;9.616;2023-11-19T00:43:21;23.93;;;15.30;;
6862;SDS011;3470;48.738;9.616;2023-11-19T00:45:47;29.00;;;17.97;;
6862;SDS011;3470;48.738;9.616;2023-11-19T00:48:15;26.33;;;16.80;;
6862;SDS011;3470;48.738;9.616;2023-11-19T00:50:41;48.07;;;20.10;;
6862;SDS011;3470;48.738;9.616;2023-11-19T00:53:09;109.53;;;23.70;;
6862;SDS011;3470;48.738;9.616;2023-11-19T00:55:35;182.80;;;29.03;;
6862;SDS011;3470;48.738;9.616;2023-11-19T00:58:00;190.93;;;29.40;;
6862;SDS011;3470;48.738;9.616;2023-11-19T01:00:26;64.47;;;18.20;;
6862;SDS011;3470;48.738;9.616;2023-11-19T01:02:52;61.63;;;19.67;;
6862;SDS011;3470;48.738;9.616;2023-11-19T01:05:18;21.77;;;15.70;;
6862;SDS011;3470;48.738;9.616;2023-11-19T01:07:47;26.47;;;15.13;;
6862;SDS011;3470;48.738;9.616;2023-11-19T01:10:13;27.13;;;16.33;;
6862;SDS011;3470;48.738;9.616;2023-11-19T01:12:41;34.10;;;16.10;;
6862;SDS011;3470;48.738;9.616;2023-11-19T01:15:07;24.03;;;16.13;;
6862;SDS011;3470;48.738;9.616;2023-11-19T01:17:33;22.27;;;15.77;;
6862;SDS011;3470;48.738;9.616;2023-11-19T01:19:58;24.00;;;16.03;;
6862;SDS011;3470;48.738;9.616;2023-11-19T01:22:24;25.90;;;15.87;;
6862;SDS011;3470;48.738;9.616;2023-11-19T01:24:49;26.40;;;16.77;;
6862;SDS011;3470;48.738;9.616;2023-11-19T01:27:17;25.53;;;16.50;;
6862;SDS011;3470;48.738;9.616;2023-11-19T01:29:42;21.73;;;15.33;;
6862;SDS011;3470;48.738;9.616;2023-11-19T01:32:08;23.67;;;15.73;;
6862;SDS011;3470;48.738;9.616;2023-11-19T01:34:33;21.93;;;15.20;;
6862;SDS011;3470;48.738;9.616;2023-11-19T01:36:59;23.13;;;16.47;;
6862;SDS011;3470;48.738;9.616;2023-11-19T01:39:25;22.23;;;14.80;;
6862;SDS011;3470;48.738;9.616;2023-11-19T01:41:51;29.67;;;15.47;;
6862;SDS011;3470;48.738;9.616;2023-11-19T01:44:16;18.37;;;13.03;;
6862;SDS011;3470;48.738;9.616;2023-11-19T01:46:43;23.10;;;14.57;;
6862;SDS011;3470;48.738;9.616;2023-11-19T01:49:12;19.30;;;13.37;;
6862;SDS011;3470;48.738;9.616;2023-11-19T01:51:40;20.13;;;13.73;;
6862;SDS011;3470;48.738;9.616;2023-11-19T01:54:07;14.07;;;10.33;;
6862;SDS011;3470;48.738;9.616;2023-11-19T01:56:33;13.27;;;9.93;;
6862;SDS011;3470;48.738;9.616;2023-11-19T01:59:00;11.17;;;7.73;;
6862;SDS011;3470;48.738;9.616;2023-11-19T02:01:25;9.67;;;7.57;;
6862;SDS011;3470;48.738;9.616;2023-11-19T02:03:52;8.40;;;6.63;;
6862;SDS011;3470;48.738;9.616;2023-11-19T02:06:18;7.73;;;5.93;;
6862;SDS011;3470;48.738;9.616;2023-11-19T02:08:43;6.63;;;5.50;;
6862;SDS011;3470;48.738;9.616;2023-11-19T02:11:09;8.07;;;5.93;;
6862;SDS011;3470;48.738;9.616;2023-11-19T02:13:37;6.97;;;5.53;;
6862;SDS011;3470;48.738;9.616;2023-11-19T02:16:03;9.37;;;6.50;;
6862;SDS011;3470;48.738;9.616;2023-11-19T02:18:29;9.07;;;6.90;;
6862;SDS011;3470;48.738;9.616;2023-11-19T02:20:58;8.33;;;6.77;;
6862;SDS011;3470;48.738;9.616;2023-11-19T02:23:26;9.70;;;6.87;;
6862;SDS011;3470;48.738;9.616;2023-11-19T02:28:27;10.83;;;7.83;;
6862;SDS011;3470;48.738;9.616;2023-11-19T02:30:52;11.07;;;8.50;;
6862;SDS011;3470;48.738;9.616;2023-11-19T02:33:18;13.17;;;8.23;;
6862;SDS011;3470;48.738;9.616;2023-11-19T02:35:44;10.67;;;8.17;;
6862;SDS011;3470;48.738;9.616;2023-11-19T02:38:09;10.13;;;8.40;;
6862;SDS011;3470;48.738;9.616;2023-11-19T02:40:35;9.77;;;8.57;;
6862;SDS011;3470;48.738;9.616;2023-11-19T02:43:01;8.53;;;7.50;;
6862;SDS011;3470;48.738;9.616;2023-11-19T02:45:29;8.70;;;7.60;;
6862;SDS011;3470;48.738;9.616;2023-11-19T02:47:56;9.43;;;7.47;;
6862;SDS011;3470;48.738;9.616;2023-11-19T02:50:21;7.90;;;6.87;;
6862;SDS011;3470;48.738;9.616;2023-11-19T02:52:51;7.60;;;6.20;;
6862;SDS011;3470;48.738;9.616;2023-11-19T02:55:18;6.83;;;6.13;;
6862;SDS011;3470;48.738;9.616;2023-11-19T02:57:44;6.50;;;5.73;;
6862;SDS011;3470;48.738;9.616;2023-11-19T03:00:16;5.83;;;5.27;;
6862;SDS011;3470;48.738;9.616;2023-11-19T03:02:43;5.30;;;4.70;;
6862;SDS011;3470;48.738;9.616;2023-11-19T03:05:19;5.73;;;4.90;;
6862;SDS011;3470;48.738;9.616;2023-11-19T03:07:44;5.00;;;4.50;;
6862;SDS011;3470;48.738;9.616;2023-11-19T03:10:10;5.60;;;4.50;;
6862;SDS011;3470;48.738;9.616;2023-11-19T03:12:43;4.50;;;4.10;;
6862;SDS011;3470;48.738;9.616;2023-11-19T03:15:10;4.70;;;4.17;;
6862;SDS011;3470;48.738;9.616;2023-11-19T03:17:38;5.90;;;4.60;;
6862;SDS011;3470;48.738;9.616;2023-11-19T03:20:05;5.17;;;4.53;;
6862;SDS011;3470;48.738;9.616;2023-11-19T03:22:32;4.93;;;4.43;;
6862;SDS011;3470;48.738;9.616;2023-11-19T03:24:59;4.80;;;4.23;;
6862;SDS011;3470;48.738;9.616;2023-11-19T03:27:24;5.23;;;4.40;;
6862;SDS011;3470;48.738;9.616;2023-11-19T03:29:50;5.00;;;4.40;;
6862;SDS011;3470;48.738;9.616;2023-11-19T03:32:16;5.33;;;4.83;;
6862;SDS011;3470;48.738;9.616;2023-11-19T03:34:41;6.87;;;5.23;;
6862;SDS011;3470;48.738;9.616;2023-11-19T03:37:07;6.00;;;5.07;;
6862;SDS011;3470;48.738;9.616;2023-11-19T03:39:32;8.50;;;5.67;;
6862;SDS011;3470;48.738;9.616;2023-11-19T03:41:58;5.93;;;5.10;;
6862;SDS011;3470;48.738;9.616;2023-11-19T03:44:25;5.70;;;5.20;;
6862;SDS011;3470;48.738;9.616;2023-11-19T03:46:52;6.27;;;5.67;;
6862;SDS011;3470;48.738;9.616;2023-11-19T03:49:17;5.87;;;5.10;;
6862;SDS011;3470;48.738;9.616;2023-11-19T03:51:43;5.70;;;5.20;;
6862;SDS011;3470;48.738;9.616;2023-11-19T03:54:08;5.97;;;5.37;;
6862;SDS011;3470;48.738;9.616;2023-11-19T03:56:34;7.13;;;5.70;;
6862;SDS011;3470;48.738;9.616;2023-11-19T03:59:00;7.87;;;6.17;;
6862;SDS011;3470;48.738;9.616;2023-11-19T04:01:26;10.53;;;5.80;;
6862;SDS011;3470;48.738;9.616;2023-11-19T04:03:51;7.27;;;6.40;;
6862;SDS011;3470;48.738;9.616;2023-11-19T04:06:17;7.93;;;6.37;;
6862;SDS011;3470;48.738;9.616;2023-11-19T04:08:42;7.10;;;6.40;;
6862;SDS011;3470;48.738;9.616;2023-11-19T04:11:08;7.13;;;6.20;;
6862;SDS011;3470;48.738;9.616;2023-11-19T04:13:34;7.37;;;5.80;;
6862;SDS011;3470;48.738;9.616;2023-11-19T04:15:59;8.00;;;6.50;;
6862;SDS011;3470;48.738;9.616;2023-11-19T04:18:25;7.87;;;7.03;;
6862;SDS011;3470;48.738;9.616;2023-11-19T04:20:51;7.93;;;7.07;;
6862;SDS011;3470;48.738;9.616;2023-11-19T04:23:16;9.63;;;8.03;;
6862;SDS011;3470;48.738;9.616;2023-11-19T04:25:42;9.00;;;7.50;;
6862;SDS011;3470;48.738;9.616;2023-11-19T04:28:07;7.93;;;6.93;;
6862;SDS011;3470;48.738;9.616;2023-11-19T04:30:33;8.30;;;7.00;;
6862;SDS011;3470;48.738;9.616;2023-11-19T04:32:59;8.20;;;7.40;;
6862;SDS011;3470;48.738;9.616;2023-11-19T04:35:24;8.93;;;6.57;;
6862;SDS011;3470;48.738;9.616;2023-11-19T04:37:51;8.00;;;6.47;;
6862;SDS011;3470;48.738;9.616;2023-11-19T04:40:16;6.43;;;5.83;;
6862;SDS011;3470;48.738;9.616;2023-11-19T04:42:43;7.50;;;5.93;;
6862;SDS011;3470;48.738;9.616;2023-11-19T04:45:09;6.07;;;5.23;;
6862;SDS011;3470;48.738;9.616;2023-11-19T04:47:35;4.73;;;4.33;;
6862;SDS011;3470;48.738;9.616;2023-11-19T04:50:01;4.97;;;4.57;;
6862;SDS011;3470;48.738;9.616;2023-11-19T04:52:27;4.37;;;3.97;;
6862;SDS011;3470;48.738;9.616;2023-11-19T04:54:53;4.67;;;4.20;;
6862;SDS011;3470;48.738;9.616;2023-11-19T04:57:19;5.00;;;4.23;;
6862;SDS011;3470;48.738;9.616;2023-11-19T04:59:44;4.40;;;4.00;;
6862;SDS011;3470;48.738;9.616;2023-11-19T05:02:10;3.83;;;3.43;;
6862;SDS011;3470;48.738;9.616;2023-11-19T05:04:36;3.80;;;3.47;;
6862;SDS011;3470;48.738;9.616;2023-11-19T05:07:02;4.20;;;3.63;;
6862;SDS011;3470;48.738;9.616;2023-11-19T05:09:28;3.40;;;3.10;;
6862;SDS011;3470;48.738;9.616;2023-11-19T05:11:55;3.10;;;2.73;;
6862;SDS011;3470;48.738;9.616;2023-11-19T05:14:21;3.87;;;2.70;;
6862;SDS011;3470;48.738;9.616;2023-11-19T05:16:47;2.93;;;2.73;;
6862;SDS011;3470;48.738;9.616;2023-11-19T05:19:12;2.73;;;2.53;;
6862;SDS011;3470;48.738;9.616;2023-11-19T05:21:41;2.60;;;2.40;;
6862;SDS011;3470;48.738;9.616;2023-11-19T05:24:10;2.97;;;2.33;;
6862;SDS011;3470;48.738;9.616;2023-11-19T05:26:36;2.30;;;2.10;;
6862;SDS011;3470;48.738;9.616;2023-11-19T05:29:03;2.40;;;2.20;;
6862;SDS011;3470;48.738;9.616;2023-11-19T05:31:29;3.53;;;1.90;;
6862;SDS011;3470;48.738;9.616;2023-11-19T05:33:55;2.00;;;1.80;;
6862;SDS011;3470;48.738;9.616;2023-11-19T05:36:20;2.90;;;2.00;;
6862;SDS011;3470;48.738;9.616;2023-11-19T05:38:46;4.03;;;1.97;;
6862;SDS011;3470;48.738;9.616;2023-11-19T05:41:12;2.83;;;1.60;;
6862;SDS011;3470;48.738;9.616;2023-11-19T05:43:37;1.43;;;1.33;;
6862;SDS011;3470;48.738;9.616;2023-11-19T05:46:05;2.90;;;1.63;;
6862;SDS011;3470;48.738;9.616;2023-11-19T05:48:31;1.50;;;1.30;;
6862;SDS011;3470;48.738;9.616;2023-11-19T05:50:57;2.47;;;1.50;;
6862;SDS011;3470;48.738;9.616;2023-11-19T05:53:22;1.80;;;1.30;;
6862;SDS011;3470;48.738;9.616;2023-11-19T05:55:48;1.60;;;1.50;;
6862;SDS011;3470;48.738;9.616;2023-11-19T05:58:19;1.50;;;1.40;;
6862;SDS011;3470;48.738;9.616;2023-11-19T06:00:51;1.30;;;1.20;;
6862;SDS011;3470;48.738;9.616;2023-11-19T06:03:16;1.10;;;1.10;;
6862;SDS011;3470;48.738;9.616;2023-11-19T06:05:44;1.13;;;1.03;;
6862;SDS011;3470;48.738;9.616;2023-11-19T06:08:11;2.17;;;1.10;;
6862;SDS011;3470;48.738;9.616;2023-11-19T06:10:38;1.00;;;1.00;;
6862;SDS011;3470;48.738;9.616;2023-11-19T06:13:04;1.13;;;1.03;;
6862;SDS011;3470;48.738;9.616;2023-11-19T06:15:30;0.90;;;0.90;;
6862;SDS011;3470;48.738;9.616;2023-11-19T06:17:57;0.90;;;0.90;;
6862;SDS011;3470;48.738;9.616;2023-11-19T06:20:24;1.33;;;1.10;;
6862;SDS011;3470;48.738;9.616;2023-11-19T06:22:50;1.20;;;1.10;;
6862;SDS011;3470;48.738;9.616;2023-11-19T06:25:16;1.10;;;1.00;;
6862;SDS011;3470;48.738;9.616;2023-11-19T06:27:42;2.40;;;1.10;;
6862;SDS011;3470;48.738;9.616;2023-11-19T06:30:07;1.73;;;1.10;;
6862;SDS011;3470;48.738;9.616;2023-11-19T06:32:34;2.10;;;1.00;;
6862;SDS011;3470;48.738;9.616;2023-11-19T06:34:59;1.20;;;1.10;;
6862;SDS011;3470;48.738;9.616;2023-11-19T06:37:25;1.50;;;1.30;;
6862;SDS011;3470;48.738;9.616;2023-11-19T06:39:52;1.17;;;1.07;;
6862;SDS011;3470;48.738;9.616;2023-11-19T06:42:17;1.20;;;1.00;;
6862;SDS011;3470;48.738;9.616;2023-11-19T06:44:43;1.37;;;1.00;;
6862;SDS011;3470;48.738;9.616;2023-11-19T06:47:08;0.73;;;0.73;;
6862;SDS011;3470;48.738;9.616;2023-11-19T06:49:34;2.40;;;0.97;;
6862;SDS011;3470;48.738;9.616;2023-11-19T06:52:00;1.40;;;1.30;;
6862;SDS011;3470;48.738;9.616;2023-11-19T06:54:25;0.93;;;0.90;;
6862;SDS011;3470;48.738;9.616;2023-11-19T06:56:51;1.67;;;0.77;;
6862;SDS011;3470;48.738;9.616;2023-11-19T06:59:16;1.13;;;1.03;;
6862;SDS011;3470;48.738;9.616;2023-11-19T07:01:42;0.97;;;0.97;;
6862;SDS011;3470;48.738;9.616;2023-11-19T07:04:13;2.10;;;1.30;;
6862;SDS011;3470;48.738;9.616;2023-11-19T07:06:39;1.40;;;1.30;;
6862;SDS011;3470;48.738;9.616;2023-11-19T07:09:08;1.30;;;1.20;;
6862;SDS011;3470;48.738;9.616;2023-11-19T07:11:39;3.03;;;2.23;;
6862;SDS011;3470;48.738;9.616;2023-11-19T07:14:07;5.20;;;3.87;;
6862;SDS011;3470;48.738;9.616;2023-11-19T07:16:33;0.93;;;0.93;;
6862;SDS011;3470;48.738;9.616;2023-11-19T07:18:59;1.20;;;1.10;;
6862;SDS011;3470;48.738;9.616;2023-11-19T07:21:25;1.93;;;1.00;;
6862;SDS011;3470;48.738;9.616;2023-11-19T07:23:53;1.10;;;1.00;;
6862;SDS011;3470;48.738;9.616;2023-11-19T07:26:19;2.17;;;1.97;;
6862;SDS011;3470;48.738;9.616;2023-11-19T07:28:45;2.27;;;2.07;;
6862;SDS011;3470;48.738;9.616;2023-11-19T07:31:11;1.10;;;0.97;;
6862;SDS011;3470;48.738;9.616;2023-11-19T07:33:41;1.20;;;1.10;;
6862;SDS011;3470;48.738;9.616;2023-11-19T07:36:08;7.50;;;4.13;;
6862;SDS011;3470;48.738;9.616;2023-11-19T07:38:34;4.57;;;2.63;;
6862;SDS011;3470;48.738;9.616;2023-11-19T07:41:00;3.77;;;2.20;;
6862;SDS011;3470;48.738;9.616;2023-11-19T07:43:26;3.57;;;2.43;;
6862;SDS011;3470;48.738;9.616;2023-11-19T07:45:51;2.83;;;2.17;;
6862;SDS011;3470;48.738;9.616;2023-11-19T07:48:17;4.10;;;1.23;;
6862;SDS011;3470;48.738;9.616;2023-11-19T07:50:47;2.20;;;1.70;;
6862;SDS011;3470;48.738;9.616;2023-11-19T07:53:15;1.80;;;1.40;;
6862;SDS011;3470;48.738;9.616;2023-11-19T07:55:41;1.00;;;1.00;;
6862;SDS011;3470;48.738;9.616;2023-11-19T07:58:07;4.03;;;2.97;;
6862;SDS011;3470;48.738;9.616;2023-11-19T08:00:32;2.20;;;1.70;;
6862;SDS011;3470;48.738;9.616;2023-11-19T08:02:58;1.07;;;1.07;;
6862;SDS011;3470;48.738;9.616;2023-11-19T08:05:23;2.60;;;1.10;;
6862;SDS011;3470;48.738;9.616;2023-11-19T08:07:52;1.90;;;0.90;;
6862;SDS011;3470;48.738;9.616;2023-11-19T08:10:18;2.73;;;1.93;;
6862;SDS011;3470;48.738;9.616;2023-11-19T08:12:44;1.07;;;0.97;;
6862;SDS011;3470;48.738;9.616;2023-11-19T08:15:10;0.93;;;0.93;;
6862;SDS011;3470;48.738;9.616;2023-11-19T08:17:35;1.37;;;1.27;;
6862;SDS011;3470;48.738;9.616;2023-11-19T08:20:01;1.00;;;1.00;;
6862;SDS011;3470;48.738;9.616;2023-11-19T08:22:29;1.93;;;1.10;;
6862;SDS011;3470;48.738;9.616;2023-11-19T08:24:55;0.87;;;0.87;;
6862;SDS011;3470;48.738;9.616;2023-11-19T08:27:21;1.47;;;0.80;;
6862;SDS011;3470;48.738;9.616;2023-11-19T08:29:52;1.63;;;0.83;;
6862;SDS011;3470;48.738;9.616;2023-11-19T08:32:20;1.00;;;0.80;;
6862;SDS011;3470;48.738;9.616;2023-11-19T08:34:46;0.80;;;0.80;;
6862;SDS011;3470;48.738;9.616;2023-11-19T08:37:11;1.57;;;0.57;;
6862;SDS011;3470;48.738;9.616;2023-11-19T08:39:37;1.17;;;1.00;;
6862;SDS011;3470;48.738;9.616;2023-11-19T08:42:03;0.90;;;0.90;;
6862;SDS011;3470;48.738;9.616;2023-11-19T08:44:29;1.70;;;1.60;;
6862;SDS011;3470;48.738;9.616;2023-11-19T08:46:55;1.00;;;1.00;;
6862;SDS011;3470;48.738;9.616;2023-11-19T08:49:20;0.70;;;0.70;;
6862;SDS011;3470;48.738;9.616;2023-11-19T08:51:46;1.60;;;1.03;;
6862;SDS011;3470;48.738;9.616;2023-11-19T08:54:11;0.80;;;0.80;;
6862;SDS011;3470;48.738;9.616;2023-11-19T08:56:38;0.80;;;0.80;;
6862;SDS011;3470;48.738;9.616;2023-11-19T08:59:04;0.90;;;0.90;;
6862;SDS011;3470;48.738;9.616;2023-11-19T09:01:30;1.00;;;0.90;;
6862;SDS011;3470;48.738;9.616;2023-11-19T09:03:55;0.60;;;0.60;;
6862;SDS011;3470;48.738;9.616;2023-11-19T09:06:21;0.80;;;0.80;;
6862;SDS011;3470;48.738;9.616;2023-11-19T09:08:46;2.15;;;0.60;;
6862;SDS011;3470;48.738;9.616;2023-11-19T09:11:12;0.88;;;0.68;;
6862;SDS011;3470;48.738;9.616;2023-11-19T09:13:37;1.27;;;0.80;;
6862;SDS011;3470;48.738;9.616;2023-11-19T09:16:03;5.53;;;1.27;;
6862;SDS011;3470;48.738;9.616;2023-11-19T09:18:29;0.82;;;0.70;;
6862;SDS011;3470;48.738;9.616;2023-11-19T09:20:55;0.80;;;0.80;;
6862;SDS011;3470;48.738;9.616;2023-11-19T09:23:21;1.02;;;0.90;;
6862;SDS011;3470;48.738;9.616;2023-11-19T09:25:46;1.33;;;0.90;;
6862;SDS011;3470;48.738;9.616;2023-11-19T09:28:12;2.63;;;1.42;;
6862;SDS011;3470;48.738;9.616;2023-11-19T09:30:39;8.27;;;4.53;;
6862;SDS011;3470;48.738;9.616;2023-11-19T09:33:05;11.25;;;7.63;;
6862;SDS011;3470;48.738;9.616;2023-11-19T09:35:30;6.18;;;5.00;;
6862;SDS011;3470;48.738;9.616;2023-11-19T09:37:56;11.05;;;8.85;;
6862;SDS011;3470;48.738;9.616;2023-11-19T09:40:21;3.08;;;1.95;;
6862;SDS011;3470;48.738;9.616;2023-11-19T09:42:47;2.75;;;1.50;;
6862;SDS011;3470;48.738;9.616;2023-11-19T09:45:13;3.88;;;3.58;;
6862;SDS011;3470;48.738;9.616;2023-11-19T09:47:43;1.98;;;1.40;;
6862;SDS011;3470;48.738;9.616;2023-11-19T09:50:10;2.67;;;2.47;;
6862;SDS011;3470;48.738;9.616;2023-11-19T09:52:42;1.95;;;1.58;;
6862;SDS011;3470;48.738;9.616;2023-11-19T09:55:08;1.38;;;1.27;;
6862;SDS011;3470;48.738;9.616;2023-11-19T09:57:34;2.37;;;1.30;;
6862;SDS011;3470;48.738;9.616;2023-11-19T10:00:02;1.30;;;1.20;;
6862;SDS011;3470;48.738;9.616;2023-11-19T10:02:31;2.40;;;1.20;;
6862;SDS011;3470;48.738;9.616;2023-11-19T10:04:58;2.00;;;1.77;;
6862;SDS011;3470;48.738;9.616;2023-11-19T10:07:26;1.63;;;1.50;;
6862;SDS011;3470;48.738;9.616;2023-11-19T10:09:52;1.77;;;1.67;;
6862;SDS011;3470;48.738;9.616;2023-11-19T10:12:18;4.22;;;3.92;;
6862;SDS011;3470;48.738;9.616;2023-11-19T10:14:43;1.83;;;1.60;;
6862;SDS011;3470;48.738;9.616;2023-11-19T10:17:11;1.33;;;1.20;;
6862;SDS011;3470;48.738;9.616;2023-11-19T10:19:36;2.70;;;1.65;;
6862;SDS011;3470;48.738;9.616;2023-11-19T10:22:04;1.30;;;1.20;;
6862;SDS011;3470;48.738;9.616;2023-11-19T10:24:31;1.27;;;1.17;;
6862;SDS011;3470;48.738;9.616;2023-11-19T10:26:59;2.15;;;1.45;;
6862;SDS011;3470;48.738;9.616;2023-11-19T10:29:29;1.48;;;1.23;;
6862;SDS011;3470;48.738;9.616;2023-11-19T10:31:55;2.67;;;1.25;;
6862;SDS011;3470;48.738;9.616;2023-11-19T10:34:25;1.73;;;1.63;;
6862;SDS011;3470;48.738;9.616;2023-11-19T10:36:52;2.35;;;2.10;;
6862;SDS011;3470;48.738;9.616;2023-11-19T10:39:18;2.05;;;1.67;;
6862;SDS011;3470;48.738;9.616;2023-11-19T10:41:44;4.43;;;1.40;;
6862;SDS011;3470;48.738;9.616;2023-11-19T10:44:09;1.77;;;0.95;;
6862;SDS011;3470;48.738;9.616;2023-11-19T10:46:36;0.85;;;0.80;;
6862;SDS011;3470;48.738;9.616;2023-11-19T10:49:03;0.50;;;0.50;;
6862;SDS011;3470;48.738;9.616;2023-11-19T10:51:29;1.02;;;0.70;;
6862;SDS011;3470;48.738;9.616;2023-11-19T10:53:54;0.80;;;0.70;;
6862;SDS011;3470;48.738;9.616;2023-11-19T10:56:27;1.33;;;0.65;;
6862;SDS011;3470;48.738;9.616;2023-11-19T10:58:55;2.38;;;1.23;;
6862;SDS011;3470;48.738;9.616;2023-11-19T11:01:24;1.50;;;0.80;;
6862;SDS011;3470;48.738;9.616;2023-11-19T11:04:03;1.27;;;0.80;;
6862;SDS011;3470;48.738;9.616;2023-11-19T11:06:29;1.77;;;0.90;;
6862;SDS011;3470;48.738;9.616;2023-11-19T11:08:55;0.70;;;0.70;;
6862;SDS011;3470;48.738;9.616;2023-11-19T11:11:22;1.17;;;0.70;;
6862;SDS011;3470;48.738;9.616;2023-11-19T11:13:49;0.70;;;0.70;;
6862;SDS011;3470;48.738;9.616;2023-11-19T11:16:18;0.80;;;0.80;;
6862;SDS011;3470;48.738;9.616;2023-11-19T11:18:48;1.50;;;0.65;;
6862;SDS011;3470;48.738;9.616;2023-11-19T11:21:15;0.43;;;0.43;;
6862;SDS011;3470;48.738;9.616;2023-11-19T11:26:53;1.00;;;0.88;;
6862;SDS011;3470;48.738;9.616;2023-11-19T11:32:35;4.78;;;4.15;;
6862;SDS011;3470;48.738;9.616;2023-11-19T11:38:04;6.22;;;5.72;;
6862;SDS011;3470;48.738;9.616;2023-11-19T11:40:32;5.10;;;4.72;;
6862;SDS011;3470;48.738;9.616;2023-11-19T11:42:57;2.00;;;1.48;;
6862;SDS011;3470;48.738;9.616;2023-11-19T11:45:36;3.60;;;3.35;;
6862;SDS011;3470;48.738;9.616;2023-11-19T11:48:11;2.35;;;1.45;;
6862;SDS011;3470;48.738;9.616;2023-11-19T11:50:50;1.55;;;0.80;;
6862;SDS011;3470;48.738;9.616;2023-11-19T11:53:22;1.17;;;0.70;;
6862;SDS011;3470;48.738;9.616;2023-11-19T11:58:17;1.33;;;1.23;;
6862;SDS011;3470;48.738;9.616;2023-11-19T12:00:44;3.25;;;1.67;;
6862;SDS011;3470;48.738;9.616;2023-11-19T12:03:12;1.30;;;1.10;;
6862;SDS011;3470;48.738;9.616;2023-11-19T12:05:41;2.42;;;2.17;;
6862;SDS011;3470;48.738;9.616;2023-11-19T12:08:09;2.15;;;1.35;;
6862;SDS011;3470;48.738;9.616;2023-11-19T12:10:37;1.05;;;0.95;;
6862;SDS011;3470;48.738;9.616;2023-11-19T12:13:09;1.40;;;1.25;;
6862;SDS011;3470;48.738;9.616;2023-11-19T12:18:21;2.83;;;1.30;;
6862;SDS011;3470;48.738;9.616;2023-11-19T12:20:48;1.25;;;1.15;;
6862;SDS011;3470;48.738;9.616;2023-11-19T12:23:14;3.88;;;3.22;;
6862;SDS011;3470;48.738;9.616;2023-11-19T12:25:40;6.10;;;3.88;;
6862;SDS011;3470;48.738;9.616;2023-11-19T12:28:11;1.55;;;1.10;;
6862;SDS011;3470;48.738;9.616;2023-11-19T12:30:38;1.10;;;1.10;;
6862;SDS011;3470;48.738;9.616;2023-11-19T12:33:07;2.08;;;1.10;;
6862;SDS011;3470;48.738;9.616;2023-11-19T12:38:18;1.83;;;1.10;;
6862;SDS011;3470;48.738;9.616;2023-11-19T12:41:06;2.72;;;1.00;;
6862;SDS011;3470;48.738;9.616;2023-11-19T12:43:33;1.02;;;0.85;;
6862;SDS011;3470;48.738;9.616;2023-11-19T12:46:03;3.28;;;0.80;;
6862;SDS011;3470;48.738;9.616;2023-11-19T12:48:41;2.45;;;0.82;;
6862;SDS011;3470;48.738;9.616;2023-11-19T12:51:07;2.30;;;0.90;;
6862;SDS011;3470;48.738;9.616;2023-11-19T12:53:46;0.93;;;0.80;;
6862;SDS011;3470;48.738;9.616;2023-11-19T12:56:18;1.65;;;1.33;;
6862;SDS011;3470;48.738;9.616;2023-11-19T12:58:45;4.18;;;3.35;;
6862;SDS011;3470;48.738;9.616;2023-11-19T13:01:14;5.88;;;3.55;;
6862;SDS011;3470;48.738;9.616;2023-11-19T13:03:44;6.13;;;3.90;;
6862;SDS011;3470;48.738;9.616;2023-11-19T13:06:11;5.20;;;3.65;;
6862;SDS011;3470;48.738;9.616;2023-11-19T13:11:13;2.10;;;1.10;;
6862;SDS011;3470;48.738;9.616;2023-11-19T13:13:58;7.68;;;6.90;;
6862;SDS011;3470;48.738;9.616;2023-11-19T13:16:25;1.40;;;1.30;;
6862;SDS011;3470;48.738;9.616;2023-11-19T13:18:52;1.63;;;0.80;;
6862;SDS011;3470;48.738;9.616;2023-11-19T13:21:18;1.58;;;1.17;;
6862;SDS011;3470;48.738;9.616;2023-11-19T13:23:44;2.72;;;1.00;;
6862;SDS011;3470;48.738;9.616;2023-11-19T13:26:10;2.15;;;1.30;;
6862;SDS011;3470;48.738;9.616;2023-11-19T13:28:36;2.33;;;1.17;;
6862;SDS011;3470;48.738;9.616;2023-11-19T13:31:02;3.50;;;1.10;;
6862;SDS011;3470;48.738;9.616;2023-11-19T13:33:28;3.95;;;3.33;;
6862;SDS011;3470;48.738;9.616;2023-11-19T13:35:54;3.03;;;2.67;;
6862;SDS011;3470;48.738;9.616;2023-11-19T13:38:20;2.17;;;1.90;;
6862;SDS011;3470;48.738;9.616;2023-11-19T13:40:46;3.38;;;2.90;;
6862;SDS011;3470;48.738;9.616;2023-11-19T13:43:11;2.33;;;1.70;;
6862;SDS011;3470;48.738;9.616;2023-11-19T13:45:37;1.77;;;0.98;;
6862;SDS011;3470;48.738;9.616;2023-11-19T13:48:02;0.98;;;0.98;;
6862;SDS011;3470;48.738;9.616;2023-11-19T13:50:28;2.72;;;1.27;;
6862;SDS011;3470;48.738;9.616;2023-11-19T13:52:54;1.98;;;1.13;;
6862;SDS011;3470;48.738;9.616;2023-11-19T13:55:19;2.47;;;0.90;;
6862;SDS011;3470;48.738;9.616;2023-11-19T13:57:45;2.35;;;0.90;;
6862;SDS011;3470;48.738;9.616;2023-11-19T14:00:11;1.85;;;1.13;;
6862;SDS011;3470;48.738;9.616;2023-11-19T14:02:41;0.80;;;0.68;;
6862;SDS011;3470;48.738;9.616;2023-11-19T14:05:07;1.95;;;0.90;;
6862;SDS011;3470;48.738;9.616;2023-11-19T14:07:34;2.90;;;0.80;;
6862;SDS011;3470;48.738;9.616;2023-11-19T14:10:00;1.48;;;0.70;;
6862;SDS011;3470;48.738;9.616;2023-11-19T14:12:25;1.30;;;0.80;;
6862;SDS011;3470;48.738;9.616;2023-11-19T14:14:51;0.95;;;0.90;;
6862;SDS011;3470;48.738;9.616;2023-11-19T14:17:17;0.93;;;0.82;;
6862;SDS011;3470;48.738;9.616;2023-11-19T14:19:43;0.60;;;0.60;;
6862;SDS011;3470;48.738;9.616;2023-11-19T14:22:09;1.50;;;0.70;;
6862;SDS011;3470;48.738;9.616;2023-11-19T14:24:35;1.00;;;0.90;;
6862;SDS011;3470;48.738;9.616;2023-11-19T14:27:01;1.73;;;0.85;;
6862;SDS011;3470;48.738;9.616;2023-11-19T14:29:27;2.33;;;1.10;;
6862;SDS011;3470;48.738;9.616;2023-11-19T14:31:56;1.33;;;0.82;;
6862;SDS011;3470;48.738;9.616;2023-11-19T14:34:23;1.35;;;0.80;;
6862;SDS011;3470;48.738;9.616;2023-11-19T14:36:49;1.08;;;0.73;;
6862;SDS011;3470;48.738;9.616;2023-11-19T14:39:15;1.60;;;1.17;;
6862;SDS011;3470;48.738;9.616;2023-11-19T14:41:42;1.65;;;0.90;;
6862;SDS011;3470;48.738;9.616;2023-11-19T14:44:09;6.80;;;3.13;;
6862;SDS011;3470;48.738;9.616;2023-11-19T14:46:35;2.97;;;1.38;;
6862;SDS011;3470;48.738;9.616;2023-11-19T14:49:00;1.65;;;0.88;;
6862;SDS011;3470;48.738;9.616;2023-11-19T14:51:26;2.80;;;1.23;;
6862;SDS011;3470;48.738;9.616;2023-11-19T14:53:52;2.25;;;0.73;;
6862;SDS011;3470;48.738;9.616;2023-11-19T14:56:17;2.33;;;1.08;;
6862;SDS011;3470;48.738;9.616;2023-11-19T14:58:43;3.42;;;1.00;;
6862;SDS011;3470;48.738;9.616;2023-11-19T15:01:12;1.10;;;0.85;;
6862;SDS011;3470;48.738;9.616;2023-11-19T15:03:38;2.55;;;1.00;;
6862;SDS011;3470;48.738;9.616;2023-11-19T15:06:04;5.00;;;3.53;;
6862;SDS011;3470;48.738;9.616;2023-11-19T15:08:31;2.42;;;2.03;;
6862;SDS011;3470;48.738;9.616;2023-11-19T15:10:57;2.65;;;1.50;;
6862;SDS011;3470;48.738;9.616;2023-11-19T15:13:23;1.50;;;1.33;;
6862;SDS011;3470;48.738;9.616;2023-11-19T15:15:49;3.13;;;1.55;;
6862;SDS011;3470;48.738;9.616;2023-11-19T15:18:15;1.25;;;1.10;;
6862;SDS011;3470;48.738;9.616;2023-11-19T15:20:42;1.95;;;1.25;;
6862;SDS011;3470;48.738;9.616;2023-11-19T15:23:12;1.50;;;1.10;;
6862;SDS011;3470;48.738;9.616;2023-11-19T15:25:41;1.92;;;1.20;;
6862;SDS011;3470;48.738;9.616;2023-11-19T15:28:07;4.60;;;1.33;;
6862;SDS011;3470;48.738;9.616;2023-11-19T15:30:33;1.10;;;0.90;;
6862;SDS011;3470;48.738;9.616;2023-11-19T15:32:58;2.38;;;1.00;;